createdAt,value
2023-03-24T00:02:06.659Z,5.10
2023-03-24T00:04:23.774Z,5.22
2023-03-24T00:06:40.867Z,5.68
2023-03-24T00:08:58.004Z,5.18
2023-03-24T00:11:14.936Z,5.20
2023-03-24T00:13:31.958Z,4.97
2023-03-24T00:15:48.990Z,5.03
2023-03-24T00:18:06.280Z,5.10
2023-03-24T00:20:23.639Z,4.78
2023-03-24T00:22:40.623Z,4.70
2023-03-24T00:24:57.518Z,4.93
2023-03-24T00:27:15.853Z,4.88
2023-03-24T00:29:32.828Z,4.63
2023-03-24T00:31:49.767Z,4.90
2023-03-24T00:34:06.708Z,4.20
2023-03-24T00:36:23.749Z,3.83
2023-03-24T00:38:40.759Z,4.15
2023-03-24T00:40:58.115Z,3.80
2023-03-24T00:43:15.134Z,4.10
2023-03-24T00:45:32.259Z,4.03
2023-03-24T00:47:49.222Z,4.40
2023-03-24T00:50:07.239Z,3.78
2023-03-24T00:52:24.311Z,4.07
2023-03-24T00:54:41.336Z,4.03
2023-03-24T00:56:58.348Z,4.20
2023-03-24T00:59:15.401Z,4.25
2023-03-24T01:01:32.429Z,4.93
2023-03-24T01:03:49.376Z,4.88
2023-03-24T01:06:06.303Z,4.70
2023-03-24T01:08:23.298Z,4.47
2023-03-24T01:10:40.348Z,4.82
2023-03-24T01:12:57.799Z,5.07
2023-03-24T01:15:14.760Z,4.63
2023-03-24T01:17:31.900Z,5.05
2023-03-24T01:19:49.213Z,4.97
2023-03-24T01:22:06.211Z,5.28
2023-03-24T01:24:23.540Z,5.13
2023-03-24T01:26:40.822Z,4.60
2023-03-24T01:28:57.882Z,4.95
2023-03-24T01:31:14.992Z,4.75
2023-03-24T01:33:32.120Z,5.28
2023-03-24T01:35:49.377Z,4.72
2023-03-24T01:38:07.278Z,5.90
2023-03-24T01:40:24.563Z,4.85
2023-03-24T01:42:41.940Z,5.43
2023-03-24T01:44:59.024Z,4.65
2023-03-24T01:47:16.056Z,5.35
2023-03-24T01:49:33.002Z,4.97
2023-03-24T01:51:49.916Z,5.20
2023-03-24T01:54:06.812Z,5.03
2023-03-24T01:56:23.895Z,5.43
2023-03-24T01:58:41.142Z,5.05
2023-03-24T02:00:58.117Z,4.93
2023-03-24T02:03:15.193Z,5.35
2023-03-24T02:05:32.216Z,5.50
2023-03-24T02:07:49.549Z,5.07
2023-03-24T02:10:06.593Z,4.95
2023-03-24T02:12:23.590Z,4.93
2023-03-24T02:14:41.554Z,5.30
2023-03-24T02:16:58.516Z,4.85
2023-03-24T02:19:15.458Z,5.20
2023-03-24T02:21:32.374Z,5.15
2023-03-24T02:23:50.586Z,4.68
2023-03-24T02:26:07.832Z,5.68
2023-03-24T02:28:24.729Z,5.65
2023-03-24T02:30:42.683Z,5.93
2023-03-24T02:32:59.839Z,5.20
2023-03-24T02:35:16.785Z,5.65
2023-03-24T02:37:34.049Z,4.85
2023-03-24T02:39:51.269Z,5.35
2023-03-24T02:42:08.172Z,5.53
2023-03-24T02:44:25.472Z,6.22
2023-03-24T02:46:42.714Z,5.47
2023-03-24T02:48:59.684Z,5.57
2023-03-24T02:51:17.681Z,5.22
2023-03-24T02:53:34.968Z,6.45
2023-03-24T02:55:51.844Z,6.30
2023-03-24T02:58:08.740Z,7.57
2023-03-24T03:00:25.692Z,7.80
2023-03-24T03:02:43.812Z,6.60
2023-03-24T03:05:00.896Z,8.07
2023-03-24T03:07:17.806Z,6.78
2023-03-24T03:09:35.004Z,6.47
2023-03-24T03:11:52.087Z,7.40
2023-03-24T03:14:09.013Z,7.43
2023-03-24T03:16:26.273Z,9.60
2023-03-24T03:18:43.277Z,8.98
2023-03-24T03:21:00.341Z,8.75
2023-03-24T03:23:17.648Z,8.75
2023-03-24T03:25:35.699Z,9.77
2023-03-24T03:27:52.739Z,10.75
2023-03-24T03:30:09.658Z,10.88
2023-03-24T03:32:26.858Z,11.90
2023-03-24T03:34:43.792Z,11.52
2023-03-24T03:37:00.719Z,10.80
2023-03-24T03:39:17.625Z,11.25
2023-03-24T03:41:34.690Z,10.52
2023-03-24T03:43:51.586Z,10.73
2023-03-24T03:46:08.698Z,10.63
2023-03-24T03:48:25.891Z,10.23
2023-03-24T03:50:43.160Z,10.90
2023-03-24T03:53:00.432Z,10.05
2023-03-24T03:55:17.439Z,9.02
2023-03-24T03:57:34.391Z,8.85
2023-03-24T03:59:51.709Z,8.63
2023-03-24T04:02:08.712Z,8.60
2023-03-24T04:04:25.759Z,8.20
2023-03-24T04:06:42.812Z,8.73
2023-03-24T04:08:59.858Z,8.60
2023-03-24T04:11:17.123Z,8.23
2023-03-24T04:13:34.404Z,7.65
2023-03-24T04:15:51.548Z,6.47
2023-03-24T04:18:08.448Z,6.60
2023-03-24T04:20:25.356Z,5.60
2023-03-24T04:22:42.336Z,6.18
2023-03-24T04:24:59.271Z,5.20
2023-03-24T04:27:16.555Z,5.35
2023-03-24T04:29:33.455Z,4.95
2023-03-24T04:31:50.398Z,4.47
2023-03-24T04:34:08.338Z,4.35
2023-03-24T04:36:26.632Z,4.43
2023-03-24T04:38:43.714Z,4.20
2023-03-24T04:41:00.784Z,4.20
2023-03-24T04:43:19.064Z,4.05
2023-03-24T04:45:36.409Z,3.80
2023-03-24T04:47:53.551Z,3.60
2023-03-24T04:50:10.557Z,3.67
2023-03-24T04:52:27.490Z,3.17
2023-03-24T04:54:44.468Z,3.22
2023-03-24T04:57:01.509Z,2.85
2023-03-24T04:59:18.423Z,2.67
2023-03-24T05:01:35.349Z,2.45
2023-03-24T05:03:53.340Z,2.30
2023-03-24T05:06:10.700Z,2.08
2023-03-24T05:08:28.635Z,2.65
2023-03-24T05:10:45.726Z,2.05
2023-03-24T05:13:02.951Z,1.80
2023-03-24T05:15:20.153Z,1.92
2023-03-24T05:17:37.150Z,1.60
2023-03-24T05:19:54.060Z,1.63
2023-03-24T05:22:11.277Z,1.73
2023-03-24T05:24:28.186Z,1.70
2023-03-24T05:26:45.219Z,1.30
2023-03-24T05:29:02.555Z,1.50
2023-03-24T05:31:19.523Z,1.52
2023-03-24T05:33:36.541Z,1.63
2023-03-24T05:35:53.672Z,1.27
2023-03-24T05:38:10.739Z,1.48
2023-03-24T05:40:28.940Z,1.30
2023-03-24T05:42:45.858Z,1.40
2023-03-24T05:45:02.768Z,1.33
2023-03-24T05:47:19.728Z,1.33
2023-03-24T05:49:36.629Z,1.40
2023-03-24T05:51:54.553Z,1.30
2023-03-24T05:54:11.443Z,1.20
2023-03-24T05:56:28.397Z,1.10
2023-03-24T05:58:45.423Z,1.05
2023-03-24T06:01:02.523Z,1.15
2023-03-24T06:03:19.861Z,1.30
2023-03-24T06:05:36.906Z,1.27
2023-03-24T06:07:53.943Z,1.30
2023-03-24T06:10:10.978Z,1.10
2023-03-24T06:12:27.961Z,1.30
2023-03-24T06:14:45.021Z,1.20
2023-03-24T06:17:02.281Z,1.27
2023-03-24T06:19:19.193Z,1.27
2023-03-24T06:21:36.414Z,1.30
2023-03-24T06:23:53.431Z,1.40
2023-03-24T06:26:10.315Z,1.20
2023-03-24T06:28:28.221Z,1.20
2023-03-24T06:30:45.231Z,1.40
2023-03-24T06:33:02.325Z,1.40
2023-03-24T06:35:19.608Z,3.10
2023-03-24T06:37:36.861Z,24.70
2023-03-24T06:39:54.060Z,15.93
2023-03-24T06:42:11.132Z,6.88
2023-03-24T06:44:29.342Z,11.55
2023-03-24T06:46:46.415Z,7.10
2023-03-24T06:49:03.700Z,4.75
2023-03-24T06:51:20.990Z,4.35
2023-03-24T06:53:38.250Z,3.78
2023-03-24T06:55:55.319Z,3.50
2023-03-24T06:58:13.314Z,2.00
2023-03-24T07:00:30.703Z,1.90
2023-03-24T07:02:48.881Z,1.60
2023-03-24T07:05:06.157Z,1.50
2023-03-24T07:09:44.010Z,1.73
2023-03-24T07:12:01.218Z,1.50
2023-03-24T07:14:18.112Z,1.40
2023-03-24T07:16:35.131Z,1.30
2023-03-24T07:18:52.449Z,1.20
2023-03-24T07:21:09.433Z,1.20
2023-03-24T07:23:26.487Z,1.10
2023-03-24T07:25:43.721Z,1.73
2023-03-24T07:28:00.657Z,1.60
2023-03-24T07:30:20.531Z,1.58
2023-03-24T07:32:41.597Z,1.40
2023-03-24T07:34:58.576Z,1.45
2023-03-24T07:37:15.848Z,1.38
2023-03-24T07:39:34.089Z,1.58
2023-03-24T07:41:51.096Z,1.70
2023-03-24T07:44:08.154Z,1.55
2023-03-24T07:46:25.072Z,1.80
2023-03-24T07:48:42.013Z,1.75
2023-03-24T07:50:59.258Z,1.85
2023-03-24T07:53:16.256Z,2.70
2023-03-24T07:55:33.535Z,3.00
2023-03-24T07:57:50.544Z,2.47
2023-03-24T08:00:07.585Z,2.80
2023-03-24T08:02:24.655Z,3.35
2023-03-24T08:04:41.790Z,3.47
2023-03-24T08:06:58.815Z,5.88
2023-03-24T08:09:16.051Z,1.77
2023-03-24T08:11:32.997Z,1.80
2023-03-24T08:13:49.872Z,0.70
2023-03-24T08:16:07.153Z,0.70
2023-03-24T08:18:24.445Z,0.73
2023-03-24T08:20:41.519Z,0.50
2023-03-24T08:22:58.415Z,0.60
2023-03-24T08:25:15.372Z,0.60
2023-03-24T08:27:32.274Z,0.80
2023-03-24T08:29:49.453Z,0.80
2023-03-24T08:32:06.795Z,0.70
2023-03-24T08:34:24.003Z,0.70
2023-03-24T08:36:41.037Z,0.68
2023-03-24T08:38:58.090Z,0.60
2023-03-24T08:41:15.010Z,0.85
2023-03-24T08:43:32.916Z,0.88
2023-03-24T08:45:49.965Z,0.70
2023-03-24T08:48:07.333Z,0.65
2023-03-24T08:50:24.540Z,0.70
2023-03-24T08:52:41.445Z,0.90
2023-03-24T08:54:58.379Z,0.75
2023-03-24T08:57:16.547Z,0.50
2023-03-24T08:59:33.599Z,1.00
2023-03-24T09:01:50.673Z,0.70
2023-03-24T09:04:07.761Z,0.93
2023-03-24T09:06:24.683Z,2.95
2023-03-24T09:08:41.641Z,4.60
2023-03-24T09:10:58.659Z,2.30
2023-03-24T09:13:15.671Z,1.63
2023-03-24T09:15:33.093Z,1.60
2023-03-24T09:17:50.109Z,1.48
2023-03-24T09:20:07.379Z,1.00
2023-03-24T09:22:43.925Z,1.00
2023-03-24T09:25:21.693Z,1.05
2023-03-24T09:27:59.064Z,2.97
2023-03-24T09:30:36.311Z,3.17
2023-03-24T09:33:13.848Z,1.98
2023-03-24T09:35:51.071Z,1.40
2023-03-24T09:38:28.352Z,1.10
2023-03-24T09:41:05.625Z,1.40
2023-03-24T09:43:42.801Z,1.17
2023-03-24T09:46:20.038Z,1.73
2023-03-24T09:48:57.304Z,1.50
2023-03-24T09:51:34.625Z,1.50
2023-03-24T09:54:12.177Z,1.58
2023-03-24T09:56:51.520Z,1.35
2023-03-24T09:59:29.557Z,1.90
2023-03-24T10:02:06.720Z,3.10
2023-03-24T10:04:43.889Z,1.83
2023-03-24T10:07:21.111Z,5.40
2023-03-24T10:09:58.369Z,2.17
2023-03-24T10:12:35.897Z,2.90
2023-03-24T10:15:13.073Z,3.08
2023-03-24T10:17:50.649Z,2.60
2023-03-24T10:20:27.983Z,2.40
2023-03-24T10:23:05.192Z,2.78
2023-03-24T10:25:42.743Z,2.10
2023-03-24T10:28:20.010Z,2.60
2023-03-24T10:30:57.419Z,3.88
2023-03-24T10:33:34.626Z,1.50
2023-03-24T10:36:12.265Z,4.22
2023-03-24T10:38:49.488Z,11.60
2023-03-24T10:41:27.060Z,3.20
2023-03-24T10:44:04.415Z,2.67
2023-03-24T10:46:41.725Z,2.00
2023-03-24T10:49:19.285Z,3.90
2023-03-24T10:51:56.550Z,12.70
2023-03-24T10:54:33.923Z,2.72
2023-03-24T10:57:11.194Z,3.53
2023-03-24T10:59:48.397Z,3.10
2023-03-24T11:02:25.919Z,2.58
2023-03-24T11:05:03.633Z,6.75
2023-03-24T11:07:41.276Z,2.45
2023-03-24T11:10:15.233Z,1.80
2023-03-24T11:12:32.474Z,3.28
2023-03-24T11:14:49.376Z,2.03
2023-03-24T11:17:06.395Z,3.45
2023-03-24T11:19:23.653Z,2.50
2023-03-24T11:21:40.971Z,2.08
2023-03-24T11:23:57.954Z,1.75
2023-03-24T11:26:15.267Z,1.17
2023-03-24T11:28:32.298Z,1.00
2023-03-24T11:30:49.624Z,1.27
2023-03-24T11:33:06.706Z,1.13
2023-03-24T11:35:29.524Z,1.20
2023-03-24T11:37:56.194Z,1.50
2023-03-24T11:40:13.522Z,1.40
2023-03-24T11:42:30.594Z,1.30
2023-03-24T11:44:47.465Z,1.38
2023-03-24T11:47:04.392Z,1.45
2023-03-24T11:49:21.550Z,1.25
2023-03-24T11:51:38.570Z,1.30
2023-03-24T11:53:55.656Z,1.63
2023-03-24T11:56:12.597Z,1.30
2023-03-24T11:58:29.638Z,1.80
2023-03-24T12:00:46.717Z,1.38
2023-03-24T12:03:03.933Z,1.38
2023-03-24T12:05:21.269Z,1.73
2023-03-24T12:07:38.345Z,1.40
2023-03-24T12:09:55.378Z,1.45
2023-03-24T12:12:12.635Z,1.20
2023-03-24T12:14:30.612Z,2.15
2023-03-24T12:16:47.797Z,1.95
2023-03-24T12:19:04.947Z,1.27
2023-03-24T12:21:21.931Z,1.33
2023-03-24T12:23:39.211Z,1.58
2023-03-24T12:25:56.344Z,1.40
2023-03-24T12:28:13.504Z,1.35
2023-03-24T12:30:30.858Z,1.55
2023-03-24T12:32:47.828Z,1.40
2023-03-24T12:35:05.196Z,1.38
2023-03-24T12:37:22.209Z,1.55
2023-03-24T12:39:39.192Z,1.40
2023-03-24T12:41:56.292Z,1.63
2023-03-24T12:44:14.355Z,1.20
2023-03-24T12:46:40.724Z,1.55
2023-03-24T12:49:04.600Z,1.30
2023-03-24T12:51:21.940Z,1.33
2023-03-24T12:53:38.913Z,1.55
2023-03-24T12:55:55.960Z,1.30
2023-03-24T12:58:14.231Z,1.77
2023-03-24T13:00:31.293Z,1.33
2023-03-24T13:02:48.706Z,1.30
2023-03-24T13:05:05.816Z,1.42
2023-03-24T13:07:22.740Z,1.38
2023-03-24T13:09:40.102Z,1.73
2023-03-24T13:11:57.054Z,1.63
2023-03-24T13:14:14.006Z,1.40
2023-03-24T13:16:31.362Z,1.40
2023-03-24T13:18:48.664Z,1.17
2023-03-24T13:21:05.664Z,1.23
2023-03-24T13:23:22.583Z,1.60
2023-03-24T13:25:39.878Z,1.55
2023-03-24T13:27:56.887Z,1.58
2023-03-24T13:30:13.901Z,1.48
2023-03-24T13:32:30.945Z,1.67
2023-03-24T13:34:47.879Z,1.20
2023-03-24T13:37:04.981Z,1.30
2023-03-24T13:39:22.118Z,1.15
2023-03-24T13:41:39.361Z,1.30
2023-03-24T13:43:56.296Z,0.98
2023-03-24T13:46:13.217Z,1.10
2023-03-24T13:48:30.290Z,1.60
2023-03-24T13:50:47.353Z,1.15
2023-03-24T13:53:04.691Z,1.02
2023-03-24T13:55:21.666Z,1.10
2023-03-24T13:57:38.809Z,1.08
2023-03-24T13:59:55.704Z,1.17
2023-03-24T14:02:12.781Z,1.20
2023-03-24T14:04:30.126Z,1.10
2023-03-24T14:06:47.236Z,1.20
2023-03-24T14:09:04.146Z,1.10
2023-03-24T14:11:21.106Z,1.05
2023-03-24T14:13:38.144Z,1.30
2023-03-24T14:15:55.353Z,1.23
2023-03-24T14:18:12.339Z,1.15
2023-03-24T14:20:29.273Z,1.25
2023-03-24T14:22:46.193Z,1.35
2023-03-24T14:25:03.216Z,1.30
2023-03-24T14:27:20.336Z,1.10
2023-03-24T14:29:38.670Z,1.05
2023-03-24T14:31:56.758Z,1.10
2023-03-24T14:34:14.318Z,1.20
2023-03-24T14:36:31.234Z,1.23
2023-03-24T14:38:48.269Z,1.50
2023-03-24T14:41:05.317Z,1.40
2023-03-24T14:43:22.309Z,1.70
2023-03-24T14:45:39.272Z,1.40
2023-03-24T14:47:56.390Z,1.50
2023-03-24T14:50:13.336Z,1.15
2023-03-24T14:52:30.324Z,1.27
2023-03-24T14:54:47.365Z,1.65
2023-03-24T14:57:04.552Z,1.30
2023-03-24T14:59:22.162Z,1.25
2023-03-24T15:01:39.308Z,1.30
2023-03-24T15:03:56.650Z,1.27
2023-03-24T15:06:13.644Z,1.50
2023-03-24T15:08:30.758Z,1.33
2023-03-24T15:10:48.400Z,1.25
2023-03-24T15:13:05.648Z,1.35
2023-03-24T15:15:22.621Z,1.30
2023-03-24T15:17:39.695Z,1.00
2023-03-24T15:19:56.694Z,1.20
2023-03-24T15:22:13.864Z,1.40
2023-03-24T15:24:30.905Z,1.38
2023-03-24T15:26:47.979Z,1.50
2023-03-24T15:29:04.913Z,1.33
2023-03-24T15:31:22.248Z,1.35
2023-03-24T15:33:39.161Z,1.30
2023-03-24T15:35:56.273Z,1.00
2023-03-24T15:38:13.597Z,1.30
2023-03-24T15:40:30.646Z,1.20
2023-03-24T15:42:48.046Z,1.42
2023-03-24T15:45:04.951Z,1.55
2023-03-24T15:47:21.988Z,1.40
2023-03-24T15:49:38.935Z,1.20
2023-03-24T15:51:55.908Z,1.27
2023-03-24T15:54:12.772Z,1.30
2023-03-24T15:56:30.048Z,1.35
2023-03-24T15:58:47.358Z,1.02
2023-03-24T16:01:04.669Z,1.30
2023-03-24T16:03:21.893Z,1.30
2023-03-24T16:05:39.254Z,1.50
2023-03-24T16:07:56.541Z,1.20
2023-03-24T16:10:13.477Z,1.30
2023-03-24T16:12:30.502Z,1.42
2023-03-24T16:14:48.409Z,1.00
2023-03-24T16:17:06.730Z,1.75
2023-03-24T16:19:24.050Z,1.10
2023-03-24T16:21:41.041Z,1.63
2023-03-24T16:23:58.258Z,1.30
2023-03-24T16:26:15.320Z,1.60
2023-03-24T16:28:33.938Z,1.60
2023-03-24T16:30:51.324Z,1.00
2023-03-24T16:33:08.441Z,1.48
2023-03-24T16:35:25.748Z,1.02
2023-03-24T16:37:43.116Z,1.38
2023-03-24T16:40:01.799Z,1.58
2023-03-24T16:42:20.597Z,1.38
2023-03-24T16:44:38.564Z,1.15
2023-03-24T16:46:56.577Z,1.70
2023-03-24T16:49:13.865Z,1.50
2023-03-24T16:51:31.942Z,1.42
2023-03-24T16:53:49.289Z,2.08
2023-03-24T16:56:06.636Z,1.50
2023-03-24T16:58:24.101Z,1.45
2023-03-24T17:00:41.260Z,1.60
2023-03-24T17:02:58.638Z,1.38
2023-03-24T17:05:15.600Z,1.33
2023-03-24T17:07:32.793Z,1.55
2023-03-24T17:09:49.733Z,1.27
2023-03-24T17:12:06.774Z,1.52
2023-03-24T17:14:24.699Z,1.23
2023-03-24T17:16:41.702Z,1.45
2023-03-24T17:18:58.799Z,1.30
2023-03-24T17:21:15.734Z,1.23
2023-03-24T17:23:33.998Z,1.20
2023-03-24T17:25:50.987Z,1.60
2023-03-24T17:28:08.320Z,1.33
2023-03-24T17:30:25.246Z,1.30
2023-03-24T17:32:42.608Z,1.30
2023-03-24T17:34:59.577Z,1.40
2023-03-24T17:37:16.983Z,1.40
2023-03-24T17:39:33.974Z,1.55
2023-03-24T17:41:50.856Z,1.27
2023-03-24T17:44:08.211Z,1.15
2023-03-24T17:46:25.546Z,1.30
2023-03-24T17:48:46.681Z,1.20
2023-03-24T17:51:05.196Z,1.63
2023-03-24T17:53:22.184Z,1.40
2023-03-24T17:55:39.072Z,1.20
2023-03-24T17:57:56.033Z,1.20
2023-03-24T18:00:13.331Z,1.30
2023-03-24T18:02:31.598Z,1.50
2023-03-24T18:04:49.632Z,1.40
2023-03-24T18:07:07.568Z,1.35
2023-03-24T18:09:24.409Z,1.30
2023-03-24T18:11:41.737Z,1.55
2023-03-24T18:13:58.655Z,1.60
2023-03-24T18:16:21.448Z,1.27
2023-03-24T18:18:39.057Z,1.40
2023-03-24T18:20:56.447Z,1.80
2023-03-24T18:23:13.819Z,1.48
2023-03-24T18:25:30.706Z,1.65
2023-03-24T18:27:47.800Z,5.10
2023-03-24T18:30:04.724Z,2.03
2023-03-24T18:32:22.046Z,1.50
2023-03-24T18:34:39.051Z,1.20
2023-03-24T18:36:56.115Z,1.30
2023-03-24T18:39:13.197Z,1.10
2023-03-24T18:41:30.274Z,0.90
2023-03-24T18:43:47.566Z,0.80
2023-03-24T18:46:04.869Z,0.90
2023-03-24T18:48:21.832Z,0.77
2023-03-24T18:50:38.796Z,0.80
2023-03-24T18:52:55.784Z,0.95
2023-03-24T18:55:12.756Z,0.80
2023-03-24T18:57:29.752Z,0.70
2023-03-24T18:59:46.672Z,0.70
2023-03-24T19:02:03.578Z,0.55
2023-03-24T19:04:20.545Z,0.60
2023-03-24T19:06:37.808Z,0.65
2023-03-24T19:08:54.761Z,1.00
2023-03-24T19:11:11.809Z,0.82
2023-03-24T19:13:28.720Z,0.77
2023-03-24T19:15:46.399Z,0.70
2023-03-24T19:18:03.972Z,0.77
2023-03-24T19:20:21.341Z,1.20
2023-03-24T19:22:39.361Z,1.00
2023-03-24T19:24:56.298Z,0.70
2023-03-24T19:27:13.419Z,0.93
2023-03-24T19:29:30.511Z,1.00
2023-03-24T19:31:47.577Z,0.80
2023-03-24T19:34:04.499Z,0.90
2023-03-24T19:36:21.496Z,0.80
2023-03-24T19:38:38.824Z,0.95
2023-03-24T19:40:55.818Z,1.10
2023-03-24T19:43:12.874Z,0.98
2023-03-24T19:45:29.926Z,0.88
2023-03-24T19:47:46.963Z,1.10
2023-03-24T19:50:04.307Z,0.80
2023-03-24T19:52:21.583Z,1.10
2023-03-24T19:54:39.569Z,6.70
2023-03-24T19:56:56.685Z,9.30
2023-03-24T19:59:13.990Z,10.40
2023-03-24T20:01:30.934Z,12.65
2023-03-24T20:03:48.176Z,10.80
2023-03-24T20:06:05.205Z,10.30
2023-03-24T20:08:22.214Z,9.27
2023-03-24T20:10:39.542Z,8.32
2023-03-24T20:12:56.857Z,7.85
2023-03-24T20:15:14.185Z,6.60
2023-03-24T20:17:31.081Z,5.18
2023-03-24T20:19:48.876Z,4.03
2023-03-24T20:22:05.929Z,2.65
2023-03-24T20:24:22.838Z,1.30
2023-03-24T20:26:40.182Z,1.60
2023-03-24T20:28:57.528Z,1.30
2023-03-24T20:31:14.544Z,1.20
2023-03-24T20:33:31.905Z,1.30
2023-03-24T20:35:49.210Z,1.30
2023-03-24T20:38:06.397Z,1.10
2023-03-24T20:40:23.729Z,0.98
2023-03-24T20:42:40.830Z,1.20
2023-03-24T20:44:57.758Z,1.30
2023-03-24T20:47:15.724Z,1.80
2023-03-24T20:49:32.644Z,1.05
2023-03-24T20:51:49.595Z,0.90
2023-03-24T20:54:06.946Z,0.70
2023-03-24T20:56:23.916Z,0.77
2023-03-24T20:58:40.991Z,0.90
2023-03-24T21:00:58.335Z,0.90
2023-03-24T21:03:15.359Z,0.60
2023-03-24T21:05:32.310Z,1.00
2023-03-24T21:07:49.366Z,0.70
2023-03-24T21:10:06.408Z,0.63
2023-03-24T21:12:23.387Z,0.40
2023-03-24T21:14:40.663Z,0.70
2023-03-24T21:16:57.661Z,0.60
2023-03-24T21:19:14.934Z,0.70
2023-03-24T21:21:31.815Z,1.00
2023-03-24T21:23:48.826Z,0.70
2023-03-24T21:26:06.082Z,0.60
2023-03-24T21:28:23.277Z,0.50
2023-03-24T21:30:40.273Z,0.40
2023-03-24T21:32:57.280Z,0.50
2023-03-24T21:35:14.592Z,0.30
2023-03-24T21:37:31.820Z,0.60
2023-03-24T21:39:48.754Z,0.38
2023-03-24T21:42:05.772Z,0.70
2023-03-24T21:44:23.002Z,0.60
2023-03-24T21:46:41.342Z,0.60
2023-03-24T21:48:58.503Z,0.40
2023-03-24T21:51:15.537Z,0.50
2023-03-24T21:53:32.917Z,0.50
2023-03-24T21:55:50.485Z,0.70
2023-03-24T21:58:08.014Z,0.90
2023-03-24T22:00:25.349Z,0.95
2023-03-24T22:02:43.316Z,0.60
2023-03-24T22:05:01.230Z,0.82
2023-03-24T22:07:19.301Z,0.50
2023-03-24T22:09:36.576Z,0.60
2023-03-24T22:11:53.860Z,1.58
2023-03-24T22:14:10.777Z,0.75
2023-03-24T22:16:27.877Z,0.88
2023-03-24T22:18:44.911Z,0.57
2023-03-24T22:21:01.901Z,0.70
2023-03-24T22:23:18.980Z,0.65
2023-03-24T22:25:36.392Z,0.40
2023-03-24T22:27:53.343Z,0.40
2023-03-24T22:30:10.377Z,0.20
2023-03-24T22:32:27.514Z,0.22
2023-03-24T22:34:44.912Z,0.20
2023-03-24T22:37:02.941Z,0.22
2023-03-24T22:39:20.312Z,0.20
2023-03-24T22:41:37.142Z,0.30
2023-03-24T22:43:54.208Z,0.20
2023-03-24T22:46:11.330Z,0.30
2023-03-24T22:48:28.458Z,0.30
2023-03-24T22:50:45.786Z,0.30
2023-03-24T22:53:02.643Z,0.40
2023-03-24T22:55:19.713Z,0.40
2023-03-24T22:57:36.671Z,0.30
2023-03-24T22:59:53.564Z,0.40
2023-03-24T23:02:11.756Z,0.30
2023-03-24T23:04:28.711Z,0.30
2023-03-24T23:06:45.665Z,0.55
2023-03-24T23:09:02.606Z,0.43
2023-03-24T23:11:19.512Z,0.30
2023-03-24T23:13:36.842Z,0.55
2023-03-24T23:15:53.925Z,0.40
2023-03-24T23:18:11.391Z,0.40
2023-03-24T23:20:28.682Z,0.40
2023-03-24T23:22:45.580Z,0.35
2023-03-24T23:25:03.294Z,0.40
2023-03-24T23:27:21.619Z,0.85
2023-03-24T23:29:38.713Z,0.50
2023-03-24T23:31:57.035Z,0.47
2023-03-24T23:34:14.453Z,0.50
2023-03-24T23:36:31.551Z,0.50
2023-03-24T23:38:48.511Z,0.60
2023-03-24T23:41:05.476Z,0.50
2023-03-24T23:43:22.862Z,1.05
2023-03-24T23:45:40.147Z,0.60
2023-03-24T23:47:57.440Z,0.80
2023-03-24T23:50:14.506Z,0.40
2023-03-24T23:52:31.887Z,0.47
2023-03-24T23:54:48.822Z,0.38
2023-03-24T23:57:06.215Z,0.45
2023-03-24T23:59:23.357Z,0.50
